Time;durP1;ratioP1;P1;durP2;ratioP2;P2;SDS_P1;SDS_P2;PMS_P1;PMS_P2;Temp;Humidity;BMP_temperature;BMP_pressure;BME280_temperature;BME280_humidity;BME280_pressure;Samples;Min_cycle;Max_cycle;Signal;HPM_P1;HPM_P2
2023/01/03 00:02:06;;;;;;;52.85;28.05;;;7.10;99.90;;;;;;4992616;28;20069;-71
2023/01/03 00:04:33;;;;;;;44.25;24.33;;;7.10;99.90;;;;;;5023662;28;20168;-70
2023/01/03 00:06:59;;;;;;;51.70;28.05;;;7.10;99.90;;;;;;4986975;28;20053;-71
2023/01/03 00:09:26;;;;;;;51.42;29.27;;;7.20;99.90;;;;;;4994680;28;20100;-71
2023/01/03 00:14:41;;;;;;;53.50;28.48;;;7.10;99.90;;;;;;4984931;28;20101;-71
2023/01/03 00:17:09;;;;;;;52.55;28.33;;;7.00;99.90;;;;;;4995142;28;20057;-71
2023/01/03 00:19:42;;;;;;;56.17;29.63;;;7.00;99.90;;;;;;4992341;28;20050;-71
2023/01/03 00:22:10;;;;;;;58.30;30.00;;;7.00;99.90;;;;;;4991182;28;20042;-71
2023/01/03 00:24:37;;;;;;;56.20;30.27;;;7.00;99.90;;;;;;4991958;28;20046;-71
2023/01/03 00:27:04;;;;;;;55.63;29.67;;;7.00;99.90;;;;;;4990874;28;20420;-71
2023/01/03 00:29:31;;;;;;;56.85;31.63;;;7.10;99.90;;;;;;4981589;28;20042;-71
2023/01/03 00:31:58;;;;;;;56.28;31.65;;;7.00;99.90;;;;;;4989134;28;20048;-70
2023/01/03 00:34:25;;;;;;;59.85;32.10;;;7.00;99.90;;;;;;4994332;28;20057;-70
2023/01/03 00:36:51;;;;;;;55.47;30.50;;;7.00;99.90;;;;;;4992107;28;20042;-70
2023/01/03 00:39:18;;;;;;;61.55;30.10;;;7.00;99.90;;;;;;4994576;28;20053;-70
2023/01/03 00:41:45;;;;;;;52.22;27.90;;;7.00;99.90;;;;;;4994696;28;20213;-72
2023/01/03 00:44:12;;;;;;;50.78;29.05;;;6.90;99.90;;;;;;4998909;28;20049;-70
2023/01/03 00:46:39;;;;;;;47.42;25.25;;;6.90;99.90;;;;;;4993880;28;20042;-70
2023/01/03 00:49:06;;;;;;;51.15;27.80;;;6.90;99.90;;;;;;4996435;28;20092;-70
2023/01/03 00:51:35;;;;;;;57.80;30.75;;;6.90;99.90;;;;;;4997880;28;20068;-70
2023/01/03 00:54:03;;;;;;;54.72;28.98;;;6.90;99.90;;;;;;4998210;28;20137;-71
2023/01/03 00:56:36;;;;;;;62.00;31.92;;;6.90;99.90;;;;;;4994113;28;20136;-72
2023/01/03 00:59:03;;;;;;;65.65;33.15;;;6.90;99.90;;;;;;4997725;28;20520;-71
2023/01/03 01:01:39;;;;;;;61.22;31.42;;;6.90;99.90;;;;;;4994837;28;20412;-70
2023/01/03 01:04:19;;;;;;;51.47;29.35;;;6.90;99.90;;;;;;4995787;28;20100;-70
2023/01/03 01:06:55;;;;;;;53.78;27.30;;;6.80;99.90;;;;;;4994221;28;20065;-71
2023/01/03 01:09:31;;;;;;;59.50;30.80;;;6.80;99.90;;;;;;4997692;28;20068;-72
2023/01/03 01:11:58;;;;;;;56.17;29.98;;;6.80;99.90;;;;;;4997455;28;20505;-71
2023/01/03 01:14:27;;;;;;;56.15;29.05;;;6.80;99.90;;;;;;4998958;28;20427;-70
2023/01/03 01:16:59;;;;;;;55.67;29.60;;;6.80;99.90;;;;;;4991247;28;20050;-70
2023/01/03 01:19:29;;;;;;;51.47;26.83;;;6.70;99.90;;;;;;4996377;28;20054;-71
2023/01/03 01:21:56;;;;;;;54.28;27.92;;;6.80;99.90;;;;;;4995408;28;20062;-71
2023/01/03 01:24:24;;;;;;;43.25;26.88;;;6.80;99.90;;;;;;4992295;28;20067;-71
2023/01/03 01:26:51;;;;;;;51.13;28.17;;;6.70;99.90;;;;;;4991828;28;20049;-71
2023/01/03 01:29:18;;;;;;;44.50;25.40;;;6.80;99.90;;;;;;4997647;28;20062;-71
2023/01/03 01:31:46;;;;;;;47.10;27.27;;;6.70;99.90;;;;;;4991078;28;20062;-71
2023/01/03 01:34:14;;;;;;;50.83;28.52;;;6.70;99.90;;;;;;4994875;28;20503;-72
2023/01/03 01:36:42;;;;;;;54.53;27.35;;;6.70;99.90;;;;;;4991007;28;20044;-71
2023/01/03 01:39:28;;;;;;;47.53;24.98;;;6.60;99.90;;;;;;4994282;28;20408;-72
2023/01/03 01:44:50;;;;;;;49.33;28.08;;;6.50;99.90;;;;;;4997200;28;20213;-71
2023/01/03 01:47:48;;;;;;;48.83;28.15;;;6.50;99.90;;;;;;4993038;28;20042;-72
2023/01/03 01:50:29;;;;;;;55.53;27.88;;;6.40;99.90;;;;;;4992438;28;20056;-71
2023/01/03 01:53:02;;;;;;;49.58;27.05;;;6.30;99.90;;;;;;5017088;28;20093;-70
2023/01/03 01:55:35;;;;;;;54.63;29.20;;;6.20;99.90;;;;;;4994729;28;20496;-70
2023/01/03 01:58:04;;;;;;;47.97;26.00;;;6.20;99.90;;;;;;4993828;28;20072;-71
2023/01/03 02:00:31;;;;;;;54.70;28.70;;;6.10;99.90;;;;;;4995015;28;20034;-72
2023/01/03 02:02:59;;;;;;;51.33;28.13;;;6.10;99.90;;;;;;4993272;28;20052;-71
2023/01/03 02:05:27;;;;;;;52.60;29.00;;;6.10;99.90;;;;;;4994111;28;20129;-72
2023/01/03 02:07:55;;;;;;;50.92;28.08;;;6.10;99.90;;;;;;4990272;28;20404;-72
2023/01/03 02:10:50;;;;;;;50.85;26.45;;;6.10;99.90;;;;;;4994100;28;20054;-72
2023/01/03 02:13:23;;;;;;;50.97;26.90;;;6.10;99.90;;;;;;4996237;28;20049;-72
2023/01/03 02:15:49;;;;;;;53.20;27.92;;;6.00;99.90;;;;;;4991148;28;20041;-70
2023/01/03 02:18:16;;;;;;;54.58;27.85;;;6.00;99.90;;;;;;4990606;28;20043;-71
2023/01/03 02:21:02;;;;;;;53.10;27.92;;;6.00;99.90;;;;;;4986740;28;20042;-71
2023/01/03 02:24:12;;;;;;;54.05;28.58;;;5.90;99.90;;;;;;4997049;28;20046;-71
2023/01/03 02:26:55;;;;;;;56.30;27.88;;;5.90;99.90;;;;;;4992471;28;20192;-70
2023/01/03 02:29:41;;;;;;;51.72;26.63;;;5.80;99.90;;;;;;4991275;28;20406;-70
2023/01/03 02:32:20;;;;;;;55.25;28.60;;;5.80;99.90;;;;;;4996507;28;20048;-70
2023/01/03 02:35:05;;;;;;;50.63;28.10;;;5.70;99.90;;;;;;4995975;28;20038;-71
2023/01/03 02:37:51;;;;;;;53.67;28.80;;;5.60;99.90;;;;;;4991590;28;20037;-71
2023/01/03 02:40:37;;;;;;;53.92;26.02;;;5.60;99.90;;;;;;4989962;28;20061;-71
2023/01/03 02:43:12;;;;;;;55.67;27.70;;;5.60;99.90;;;;;;4991605;28;20664;-71
2023/01/03 02:45:45;;;;;;;49.13;26.63;;;5.50;99.90;;;;;;5012553;28;20250;-70
2023/01/03 02:48:36;;;;;;;63.42;29.48;;;5.50;99.90;;;;;;4994948;28;20103;-71
2023/01/03 02:51:11;;;;;;;54.75;27.63;;;5.50;99.90;;;;;;4994397;28;20068;-72
2023/01/03 02:53:43;;;;;;;63.08;29.50;;;5.40;99.90;;;;;;4995804;28;20481;-72
2023/01/03 02:56:23;;;;;;;66.47;30.20;;;5.40;99.90;;;;;;4991120;28;20034;-71
2023/01/03 02:58:56;;;;;;;54.08;27.45;;;5.40;99.90;;;;;;4990659;28;20068;-71
2023/01/03 03:01:24;;;;;;;58.15;27.42;;;5.30;99.90;;;;;;4990682;28;20050;-70
2023/01/03 03:03:52;;;;;;;53.78;27.52;;;5.40;99.90;;;;;;4991417;28;20599;-70
2023/01/03 03:06:44;;;;;;;51.67;26.58;;;5.40;99.90;;;;;;4989906;28;20535;-70
2023/01/03 03:09:11;;;;;;;53.08;26.13;;;5.40;99.90;;;;;;5003284;23;20058;-68
2023/01/03 03:14:41;;;;;;;50.65;26.08;;;5.40;99.90;;;;;;5005266;28;20050;-69
2023/01/03 03:17:14;;;;;;;44.22;22.95;;;5.40;99.90;;;;;;4980314;28;20074;-69
2023/01/03 03:25:44;;;;;;;44.95;24.75;;;5.50;99.90;;;;;;4974553;28;20108;-71
2023/01/03 03:28:34;;;;;;;45.75;24.20;;;5.50;99.90;;;;;;4977253;28;20054;-70
2023/01/03 03:31:21;;;;;;;70.07;26.38;;;5.50;99.90;;;;;;4975157;28;20046;-71
2023/01/03 03:33:56;;;;;;;45.22;23.63;;;5.40;99.90;;;;;;4972828;28;20134;-71
2023/01/03 03:36:45;;;;;;;45.35;22.10;;;5.40;99.90;;;;;;4981325;28;20046;-71
2023/01/03 03:45:22;;;;;;;49.17;21.23;;;5.30;99.90;;;;;;4973941;28;20042;-71
2023/01/03 03:48:01;;;;;;;38.80;22.02;;;5.40;99.90;;;;;;4976662;28;20061;-71
2023/01/03 03:50:44;;;;;;;38.78;21.83;;;5.30;99.90;;;;;;4972669;28;20129;-71
2023/01/03 03:53:13;;;;;;;38.22;19.38;;;5.30;99.90;;;;;;4969091;28;20129;-70
2023/01/03 03:55:59;;;;;;;38.08;19.67;;;5.30;99.90;;;;;;4998614;28;20312;-70
2023/01/03 03:58:30;;;;;;;34.55;19.27;;;5.30;99.90;;;;;;4959305;28;20050;-70
2023/01/03 04:00:59;;;;;;;35.63;18.25;;;5.30;99.90;;;;;;4952022;28;20053;-70
2023/01/03 04:03:27;;;;;;;42.15;20.55;;;5.30;99.90;;;;;;4954188;28;20509;-69
2023/01/03 04:06:00;;;;;;;34.38;18.33;;;5.30;99.90;;;;;;4964326;28;20038;-69
2023/01/03 04:08:27;;;;;;;38.88;19.30;;;5.40;99.90;;;;;;4987655;28;20042;-70
2023/01/03 04:11:04;;;;;;;36.78;18.50;;;5.40;99.90;;;;;;4973854;28;20058;-70
2023/01/03 04:13:36;;;;;;;33.78;18.15;;;5.30;99.90;;;;;;4953493;28;20054;-69
2023/01/03 04:16:04;;;;;;;34.97;19.30;;;5.30;99.90;;;;;;4942850;28;20049;-70
2023/01/03 04:18:31;;;;;;;28.17;15.50;;;5.30;99.90;;;;;;4951683;28;20286;-69
2023/01/03 04:20:58;;;;;;;32.80;16.75;;;5.20;99.90;;;;;;4954141;28;20055;-70
2023/01/03 04:23:27;;;;;;;28.85;16.65;;;5.20;99.90;;;;;;4957403;28;20216;-70
2023/01/03 04:25:53;;;;;;;29.67;15.07;;;5.20;99.90;;;;;;4951013;28;20109;-69
2023/01/03 04:28:20;;;;;;;25.75;15.48;;;5.20;99.90;;;;;;4957694;28;20062;-70
2023/01/03 04:30:47;;;;;;;28.40;16.33;;;5.20;99.90;;;;;;4951398;28;20106;-70
2023/01/03 04:33:13;;;;;;;34.30;16.70;;;5.10;99.90;;;;;;4955672;28;20074;-70
2023/01/03 04:35:40;;;;;;;24.23;14.30;;;5.20;99.90;;;;;;4957495;28;20045;-69
2023/01/03 04:38:08;;;;;;;25.73;14.20;;;5.20;99.90;;;;;;4989565;28;20136;-70
2023/01/03 04:40:37;;;;;;;36.97;17.65;;;5.20;99.90;;;;;;4967197;28;20039;-70
2023/01/03 04:45:50;;;;;;;22.65;15.40;;;5.10;99.90;;;;;;4954270;28;20070;-70
2023/01/03 04:48:17;;;;;;;22.08;14.27;;;5.10;99.90;;;;;;4953649;28;20055;-69
2023/01/03 04:50:54;;;;;;;21.13;14.40;;;5.00;99.90;;;;;;4952194;28;20043;-69
2023/01/03 04:53:23;;;;;;;24.05;15.65;;;5.00;99.90;;;;;;4958057;28;20046;-69
2023/01/03 04:55:51;;;;;;;24.75;15.93;;;5.00;99.90;;;;;;4948261;28;20056;-69
2023/01/03 04:58:18;;;;;;;19.42;14.95;;;4.90;99.90;;;;;;4957939;28;20049;-70
2023/01/03 05:00:45;;;;;;;24.33;16.25;;;4.90;99.90;;;;;;4953598;28;20058;-70
2023/01/03 05:03:12;;;;;;;25.02;16.23;;;4.80;99.90;;;;;;4956753;28;20043;-69
2023/01/03 05:05:39;;;;;;;23.52;15.70;;;4.80;99.90;;;;;;4949190;28;20501;-70
2023/01/03 05:08:08;;;;;;;24.75;17.73;;;4.70;99.90;;;;;;4950440;28;20069;-70
2023/01/03 05:10:38;;;;;;;30.80;16.45;;;4.70;99.90;;;;;;4958018;28;20060;-69
2023/01/03 05:13:05;;;;;;;29.23;16.17;;;4.70;99.90;;;;;;4955571;28;20053;-69
2023/01/03 05:15:37;;;;;;;26.85;17.05;;;4.70;99.90;;;;;;4958133;28;20424;-70
2023/01/03 05:18:04;;;;;;;30.50;16.23;;;4.60;99.90;;;;;;4957630;28;21739;-70
2023/01/03 05:26:12;;;;;;;;;;;4.60;99.90;;;;;;4959119;28;20042;-70
2023/01/03 05:28:40;;;;;;;28.10;16.35;;;4.60;99.90;;;;;;4959766;28;20328;-69
2023/01/03 05:31:07;;;;;;;24.35;16.67;;;4.60;99.90;;;;;;4955679;28;20137;-69
2023/01/03 05:33:36;;;;;;;27.02;17.13;;;4.50;99.90;;;;;;4958141;28;20042;-69
2023/01/03 05:36:02;;;;;;;30.05;16.73;;;4.50;99.90;;;;;;4960747;28;20049;-69
2023/01/03 05:38:29;;;;;;;25.50;17.05;;;4.50;99.90;;;;;;4965802;28;20069;-70
2023/01/03 05:40:56;;;;;;;30.17;19.25;;;4.50;99.90;;;;;;4959277;28;20038;-69
2023/01/03 05:43:22;;;;;;;26.75;16.55;;;4.40;99.90;;;;;;4959798;28;20071;-69
2023/01/03 05:45:50;;;;;;;24.92;17.15;;;4.40;99.90;;;;;;4955709;28;20047;-69
2023/01/03 05:48:19;;;;;;;27.85;16.63;;;4.40;99.90;;;;;;4938384;28;20051;-69
2023/01/03 05:50:48;;;;;;;26.33;17.10;;;4.40;99.90;;;;;;4957820;28;20109;-69
2023/01/03 05:53:16;;;;;;;29.88;16.08;;;4.30;99.90;;;;;;4960599;28;20392;-70
2023/01/03 05:55:42;;;;;;;29.45;17.95;;;4.30;99.90;;;;;;4955637;28;20114;-70
2023/01/03 05:58:10;;;;;;;23.95;16.05;;;4.20;99.90;;;;;;4957028;28;20069;-69
2023/01/03 06:00:37;;;;;;;22.05;16.65;;;4.10;99.90;;;;;;4958743;28;20073;-69
2023/01/03 06:03:04;;;;;;;34.58;18.42;;;4.10;99.90;;;;;;4956276;28;20126;-70
2023/01/03 06:05:31;;;;;;;30.58;16.27;;;4.10;99.90;;;;;;4960061;28;20053;-70
2023/01/03 06:08:01;;;;;;;24.48;16.40;;;4.10;99.90;;;;;;4941934;28;20077;-69
2023/01/03 06:10:29;;;;;;;26.70;16.38;;;4.10;99.90;;;;;;4962932;28;20177;-69
2023/01/03 06:12:56;;;;;;;25.00;15.25;;;4.10;99.90;;;;;;4971238;28;20077;-72
2023/01/03 06:15:23;;;;;;;20.27;14.98;;;4.10;99.90;;;;;;4961075;28;20034;-71
2023/01/03 06:18:01;;;;;;;21.90;15.07;;;4.10;99.90;;;;;;4962713;28;20222;-72
2023/01/03 06:20:28;;;;;;;19.88;13.68;;;4.10;99.90;;;;;;4957127;28;20108;-71
2023/01/03 06:22:56;;;;;;;20.23;14.32;;;4.10;99.90;;;;;;4955617;28;20050;-71
2023/01/03 06:25:23;;;;;;;20.73;13.77;;;4.10;99.90;;;;;;4955787;28;20138;-71
2023/01/03 06:27:49;;;;;;;21.02;14.18;;;4.10;99.90;;;;;;4954461;28;20074;-71
2023/01/03 06:30:16;;;;;;;21.50;13.95;;;4.20;99.90;;;;;;4952330;28;20107;-72
2023/01/03 06:32:44;;;;;;;20.98;14.07;;;4.20;99.90;;;;;;4955188;28;20121;-72
2023/01/03 06:35:11;;;;;;;19.67;15.32;;;4.20;99.90;;;;;;4956949;28;20027;-72
2023/01/03 06:37:38;;;;;;;19.20;15.57;;;4.20;99.90;;;;;;4953382;28;20335;-72
2023/01/03 06:40:06;;;;;;;27.30;16.15;;;4.20;99.90;;;;;;4942327;28;20074;-70
2023/01/03 06:42:41;;;;;;;17.33;15.55;;;4.30;99.90;;;;;;4954500;28;20047;-71
2023/01/03 06:53:40;;;;;;;27.15;17.48;;;4.10;99.90;;;;;;4963597;28;20141;-71
2023/01/03 06:56:08;;;;;;;27.73;20.42;;;4.00;99.90;;;;;;4951879;28;20046;-70
2023/01/03 06:58:35;;;;;;;31.63;20.70;;;4.00;99.90;;;;;;4957840;28;20046;-71
2023/01/03 07:01:03;;;;;;;21.85;17.67;;;3.90;99.90;;;;;;4966388;28;20046;-71
2023/01/03 07:03:31;;;;;;;26.98;17.25;;;3.80;99.90;;;;;;4977425;28;20122;-72
2023/01/03 07:05:58;;;;;;;25.20;18.02;;;3.80;99.90;;;;;;4971110;28;20636;-72
2023/01/03 07:08:25;;;;;;;31.13;21.10;;;3.70;99.90;;;;;;4947741;28;20133;-70
2023/01/03 07:10:53;;;;;;;30.65;20.63;;;3.60;99.90;;;;;;4960810;28;21257;-69
2023/01/03 07:16:06;;;;;;;21.55;15.48;;;3.60;99.90;;;;;;4970027;28;20043;-69
2023/01/03 07:18:33;;;;;;;23.13;17.02;;;3.60;99.90;;;;;;4954503;28;20117;-69
2023/01/03 07:20:59;;;;;;;22.13;16.23;;;3.50;99.90;;;;;;4960036;28;20699;-69
2023/01/03 07:23:26;;;;;;;29.13;15.63;;;3.50;99.90;;;;;;4974090;28;20116;-70
2023/01/03 07:25:54;;;;;;;26.10;15.77;;;3.50;99.90;;;;;;4967377;28;20331;-69
2023/01/03 07:28:22;;;;;;;23.73;16.60;;;3.50;99.90;;;;;;4957749;28;20043;-70
2023/01/03 07:30:48;;;;;;;25.95;15.73;;;3.50;99.90;;;;;;4954845;28;20058;-70
2023/01/03 07:33:17;;;;;;;24.08;17.52;;;3.40;99.90;;;;;;4955850;28;20142;-69
2023/01/03 07:35:44;;;;;;;25.50;19.85;;;3.30;99.90;;;;;;4954936;28;20054;-70
2023/01/03 07:38:12;;;;;;;27.33;19.25;;;3.20;99.90;;;;;;4958672;28;20057;-70
2023/01/03 07:40:39;;;;;;;30.58;19.05;;;3.20;99.90;;;;;;4961192;28;20326;-70
2023/01/03 07:45:54;;;;;;;30.80;20.45;;;3.10;99.90;;;;;;4964937;28;20619;-70
2023/01/03 07:48:21;;;;;;;28.67;21.95;;;3.00;99.90;;;;;;4961140;28;20085;-70
2023/01/03 07:50:48;;;;;;;32.58;23.73;;;3.00;99.90;;;;;;4962765;28;20046;-70
2023/01/03 07:53:17;;;;;;;38.13;22.27;;;3.10;99.90;;;;;;4977351;28;20057;-70
2023/01/03 07:55:44;;;;;;;33.78;21.75;;;3.10;99.90;;;;;;4969274;28;20066;-70
2023/01/03 07:58:11;;;;;;;29.88;20.88;;;3.10;99.90;;;;;;4964789;28;20223;-70
2023/01/03 08:00:38;;;;;;;28.48;20.60;;;3.20;99.90;;;;;;4961488;28;20042;-70
2023/01/03 08:03:06;;;;;;;35.88;22.67;;;3.20;99.90;;;;;;4988963;28;20129;-70
2023/01/03 08:05:37;;;;;;;32.10;21.00;;;3.20;99.90;;;;;;4971415;28;20065;-70
2023/01/03 08:08:05;;;;;;;30.98;22.95;;;3.20;99.90;;;;;;4956389;28;20154;-70
2023/01/03 08:13:17;;;;;;;37.28;25.70;;;3.20;99.90;;;;;;4978885;28;20064;-70
2023/01/03 08:15:44;;;;;;;44.03;28.08;;;3.10;99.90;;;;;;4968606;28;20447;-69
2023/01/03 08:18:12;;;;;;;41.85;26.58;;;3.10;99.90;;;;;;4959209;28;20050;-70
2023/01/03 08:20:40;;;;;;;46.55;28.38;;;3.20;99.90;;;;;;4961761;28;20046;-69
2023/01/03 08:23:08;;;;;;;40.47;26.13;;;3.20;99.90;;;;;;4977121;28;20498;-69
2023/01/03 08:25:35;;;;;;;46.95;30.80;;;3.30;99.90;;;;;;4973778;28;20256;-70
2023/01/03 08:28:02;;;;;;;48.28;27.25;;;3.30;99.90;;;;;;4955937;28;20051;-70
2023/01/03 08:30:29;;;;;;;41.35;25.77;;;3.40;99.90;;;;;;4954105;28;20406;-70
2023/01/03 08:33:00;;;;;;;38.00;24.58;;;3.40;99.90;;;;;;4956048;28;20038;-70
2023/01/03 08:35:33;;;;;;;46.92;26.38;;;3.50;99.90;;;;;;4976398;28;20038;-69
2023/01/03 08:38:02;;;;;;;42.20;23.75;;;3.60;99.90;;;;;;4955726;28;20069;-70
2023/01/03 08:40:33;;;;;;;41.67;26.90;;;3.60;99.90;;;;;;4959482;28;20689;-70
2023/01/03 08:43:09;;;;;;;40.17;26.83;;;3.70;99.90;;;;;;4975592;28;20046;-72
2023/01/03 08:45:37;;;;;;;34.95;22.58;;;3.90;99.90;;;;;;4970443;28;20038;-72
2023/01/03 08:48:05;;;;;;;31.17;22.33;;;3.90;99.90;;;;;;4963661;28;20039;-72
2023/01/03 08:50:32;;;;;;;28.70;24.55;;;4.00;99.90;;;;;;4968036;28;20052;-72
2023/01/03 08:52:59;;;;;;;30.50;25.75;;;4.20;99.90;;;;;;4974773;28;20073;-72
2023/01/03 08:55:26;;;;;;;33.25;29.08;;;4.40;99.90;;;;;;4973960;28;20386;-72
2023/01/03 08:57:53;;;;;;;32.40;29.60;;;4.60;99.90;;;;;;4956005;28;20389;-72
2023/01/03 09:00:19;;;;;;;33.05;29.70;;;4.80;99.90;;;;;;4966387;28;20062;-72
2023/01/03 09:02:46;;;;;;;34.08;31.02;;;4.90;99.90;;;;;;4964238;28;20053;-72
2023/01/03 09:05:13;;;;;;;34.30;31.60;;;5.10;99.90;;;;;;4979620;28;20523;-72
2023/01/03 09:07:40;;;;;;;36.25;33.10;;;5.20;99.90;;;;;;4959085;28;20546;-71
2023/01/03 09:10:07;;;;;;;34.60;31.77;;;5.40;99.90;;;;;;4938076;28;20127;-72
2023/01/03 09:12:34;;;;;;;36.17;33.38;;;5.50;99.90;;;;;;4959569;28;20051;-72
2023/01/03 09:15:01;;;;;;;36.35;33.25;;;5.60;99.90;;;;;;4957889;28;21280;-72
2023/01/03 09:17:28;;;;;;;39.97;36.75;;;5.60;99.90;;;;;;4958012;28;20042;-72
2023/01/03 09:19:55;;;;;;;40.72;37.28;;;5.70;99.90;;;;;;4963405;28;20034;-72
2023/01/03 09:22:22;;;;;;;36.33;33.03;;;5.80;99.90;;;;;;4962753;28;20057;-71
2023/01/03 09:24:48;;;;;;;40.47;36.95;;;5.90;99.90;;;;;;4956994;28;20406;-72
2023/01/03 09:27:15;;;;;;;39.63;36.28;;;5.90;99.90;;;;;;4955816;28;20123;-72
2023/01/03 09:29:42;;;;;;;39.47;36.50;;;6.00;99.90;;;;;;4959611;28;20138;-72
2023/01/03 09:32:09;;;;;;;39.15;35.70;;;6.30;99.90;;;;;;4960214;28;20031;-72
2023/01/03 09:34:36;;;;;;;40.17;36.80;;;6.30;99.90;;;;;;4966831;28;20113;-72
2023/01/03 09:37:03;;;;;;;38.90;35.65;;;6.50;99.90;;;;;;4957638;28;20054;-72
2023/01/03 09:39:30;;;;;;;37.65;34.80;;;6.60;99.90;;;;;;4959598;28;20069;-72
2023/01/03 09:44:59;;;;;;;37.15;34.05;;;6.20;99.90;;;;;;4955455;28;20050;-72
2023/01/03 09:47:26;;;;;;;36.90;34.10;;;6.30;99.90;;;;;;4957511;28;20047;-72
2023/01/03 09:49:53;;;;;;;35.05;32.22;;;6.30;99.90;;;;;;4956361;28;20253;-71
2023/01/03 10:04:37;;;;;;;30.00;27.85;;;6.60;99.90;;;;;;4962100;28;20413;-72
2023/01/03 10:07:32;;;;;;;30.73;28.42;;;6.40;99.90;;;;;;4958561;28;20340;-72
2023/01/03 10:10:04;;;;;;;28.58;26.15;;;6.30;99.90;;;;;;4952888;28;20043;-72
2023/01/03 10:13:05;;;;;;;32.47;29.35;;;6.30;99.90;;;;;;4957674;28;20047;-72
2023/01/03 10:16:06;;;;;;;30.88;28.50;;;6.30;99.90;;;;;;4951993;28;20053;-72
2023/01/03 10:19:02;;;;;;;29.95;27.75;;;6.30;99.90;;;;;;4950229;28;20393;-72
2023/01/03 10:21:40;;;;;;;28.52;25.45;;;6.40;99.90;;;;;;4962965;28;20150;-72
2023/01/03 10:24:16;;;;;;;28.95;26.60;;;6.60;99.90;;;;;;4956236;28;20145;-72
2023/01/03 10:26:42;;;;;;;28.23;25.90;;;6.70;99.90;;;;;;4958856;28;20058;-72
2023/01/03 10:29:12;;;;;;;29.67;27.02;;;7.10;99.90;;;;;;4957318;28;20137;-72
2023/01/03 10:32:02;;;;;;;29.33;27.30;;;7.40;99.90;;;;;;4957609;28;20219;-72
2023/01/03 10:34:29;;;;;;;29.52;27.55;;;7.60;99.90;;;;;;4953480;28;20120;-72
2023/01/03 10:36:56;;;;;;;29.35;27.17;;;7.80;99.90;;;;;;4954396;28;20046;-72
2023/01/03 10:39:30;;;;;;;30.67;28.67;;;8.00;99.90;;;;;;4960588;28;20197;-72
2023/01/03 10:41:58;;;;;;;30.90;28.48;;;8.20;99.90;;;;;;4955391;28;20610;-72
2023/01/03 10:44:31;;;;;;;32.08;29.67;;;8.50;99.90;;;;;;4957019;28;20043;-72
2023/01/03 10:47:09;;;;;;;32.60;30.30;;;8.60;99.90;;;;;;4955085;28;20043;-72
2023/01/03 10:49:36;;;;;;;34.33;31.83;;;8.80;99.90;;;;;;4955737;28;20404;-72
2023/01/03 10:52:15;;;;;;;34.03;31.65;;;9.00;99.90;;;;;;4954792;28;20054;-71
2023/01/03 10:54:42;;;;;;;30.17;28.45;;;9.10;99.90;;;;;;4954675;28;20039;-72
2023/01/03 10:57:34;;;;;;;31.88;29.90;;;9.00;99.90;;;;;;4962558;28;20046;-72
2023/01/03 11:00:00;;;;;;;30.42;28.58;;;9.00;99.90;;;;;;4952408;28;20043;-71
2023/01/03 11:02:27;;;;;;;31.63;28.95;;;8.80;99.90;;;;;;4953833;28;20246;-72
2023/01/03 11:05:11;;;;;;;30.08;27.88;;;8.70;99.90;;;;;;4953476;28;21581;-72
2023/01/03 11:07:43;;;;;;;32.15;30.10;;;8.80;99.90;;;;;;4976797;28;20104;-72
2023/01/03 11:10:17;;;;;;;33.22;30.40;;;8.80;99.90;;;;;;4972832;28;20064;-71
2023/01/03 11:12:45;;;;;;;;;;;8.70;99.90;;;;;;4982081;28;20223;-72
2023/01/03 11:15:43;;;;;;;32.80;30.85;;;8.60;99.90;;;;;;4970873;28;20431;-72
2023/01/03 11:18:17;;;;;;;32.15;30.13;;;8.70;99.90;;;;;;4948297;28;20046;-71
2023/01/03 11:20:59;;;;;;;33.17;31.13;;;8.50;99.90;;;;;;4957327;28;20559;-72
2023/01/03 11:23:51;;;;;;;30.83;29.23;;;8.30;99.90;;;;;;4956048;28;20050;-71
2023/01/03 11:26:42;;;;;;;30.73;28.73;;;8.20;99.90;;;;;;4943658;28;20057;-71
2023/01/03 11:29:36;;;;;;;31.85;29.23;;;8.20;99.90;;;;;;4953348;28;20055;-72
2023/01/03 11:32:14;;;;;;;29.90;27.65;;;8.10;99.90;;;;;;4986076;28;20132;-72
2023/01/03 11:35:10;;;;;;;30.23;28.23;;;8.00;99.90;;;;;;4962140;28;20079;-71
2023/01/03 11:38:07;;;;;;;30.08;28.15;;;8.10;99.90;;;;;;4952220;28;20050;-71
2023/01/03 11:41:01;;;;;;;28.40;26.55;;;8.10;99.90;;;;;;4958152;28;20121;-71
2023/01/03 11:43:58;;;;;;;29.42;27.52;;;8.10;99.90;;;;;;4969960;28;20038;-72
2023/01/03 11:46:58;;;;;;;28.58;26.88;;;8.00;99.90;;;;;;4966270;28;20149;-72
2023/01/03 11:49:51;;;;;;;27.23;25.30;;;8.00;99.90;;;;;;4933053;28;20051;-71
2023/01/03 11:52:42;;;;;;;27.33;25.65;;;8.10;99.90;;;;;;4987135;28;20037;-71
2023/01/03 11:55:34;;;;;;;28.33;26.40;;;8.00;99.90;;;;;;4987861;28;20054;-72
2023/01/03 11:58:19;;;;;;;25.45;24.05;;;8.10;99.90;;;;;;4987220;28;21234;-71
2023/01/03 12:01:05;;;;;;;26.27;24.67;;;8.10;99.90;;;;;;4951956;28;20079;-72
2023/01/03 12:03:53;;;;;;;28.05;26.05;;;8.10;99.90;;;;;;4955286;28;20058;-72
2023/01/03 12:06:32;;;;;;;26.92;25.08;;;8.10;99.90;;;;;;4955633;28;20070;-72
2023/01/03 12:09:30;;;;;;;29.35;27.10;;;8.20;99.90;;;;;;4950348;28;20316;-72
2023/01/03 12:12:24;;;;;;;29.25;27.35;;;8.20;99.90;;;;;;4949170;28;20153;-72
2023/01/03 12:14:59;;;;;;;27.35;25.65;;;8.30;99.90;;;;;;4952726;28;20531;-72
2023/01/03 12:17:52;;;;;;;29.20;27.42;;;8.30;99.90;;;;;;4988643;28;20045;-72
2023/01/03 12:20:37;;;;;;;27.90;25.40;;;8.30;99.90;;;;;;4971570;28;20041;-72
2023/01/03 12:23:26;;;;;;;31.63;29.58;;;8.30;99.90;;;;;;4953316;28;20050;-72
2023/01/03 12:25:58;;;;;;;27.17;25.50;;;8.30;99.90;;;;;;4952566;28;20047;-73
2023/01/03 12:28:48;;;;;;;26.70;24.50;;;8.30;99.90;;;;;;4954106;28;20057;-73
2023/01/03 12:31:37;;;;;;;24.73;23.08;;;8.20;99.90;;;;;;4956343;28;20355;-73
2023/01/03 12:34:22;;;;;;;25.85;23.60;;;8.20;99.90;;;;;;4954989;28;20138;-73
2023/01/03 12:37:08;;;;;;;;;;;8.20;99.90;;;;;;4954435;28;20045;-73
2023/01/03 12:39:46;;;;;;;20.60;19.20;;;8.10;99.90;;;;;;4953650;28;20060;-72
2023/01/03 12:42:22;;;;;;;20.63;19.30;;;8.20;99.90;;;;;;4954834;28;20134;-72
2023/01/03 12:44:58;;;;;;;21.17;19.58;;;8.20;99.90;;;;;;4955036;28;20062;-73
2023/01/03 12:47:46;;;;;;;21.33;19.88;;;8.20;99.90;;;;;;4956416;28;20146;-72
2023/01/03 12:50:17;;;;;;;21.75;20.38;;;8.20;99.90;;;;;;4955091;28;20161;-72
2023/01/03 12:52:53;;;;;;;21.75;19.50;;;8.20;99.90;;;;;;4938826;28;20523;-72
2023/01/03 12:55:46;;;;;;;19.38;17.92;;;8.10;99.90;;;;;;4962462;28;20043;-71
2023/01/03 12:58:29;;;;;;;20.52;18.88;;;8.20;99.90;;;;;;4974907;28;20568;-72
2023/01/03 13:01:14;;;;;;;22.15;20.80;;;8.30;99.90;;;;;;4966375;28;20070;-71
2023/01/03 13:03:53;;;;;;;20.55;19.35;;;8.30;99.90;;;;;;4955741;28;20043;-71
2023/01/03 13:06:26;;;;;;;23.10;21.42;;;8.40;99.90;;;;;;4969899;28;20045;-72
2023/01/03 13:08:56;;;;;;;23.17;21.60;;;8.40;99.90;;;;;;4973607;28;20049;-72
2023/01/03 13:11:48;;;;;;;24.75;23.08;;;8.50;99.90;;;;;;4966321;28;20031;-71
2023/01/03 13:14:27;;;;;;;23.42;21.80;;;8.50;99.90;;;;;;4956061;28;20070;-71
2023/01/03 13:16:55;;;;;;;22.40;20.60;;;8.40;99.90;;;;;;4969763;28;20049;-71
2023/01/03 13:19:22;;;;;;;20.95;19.75;;;8.50;99.90;;;;;;4977222;28;20050;-71
2023/01/03 13:21:51;;;;;;;21.80;20.40;;;8.50;99.90;;;;;;4950377;28;20280;-71
2023/01/03 13:24:37;;;;;;;22.45;20.83;;;8.50;99.90;;;;;;4958647;28;20118;-71
2023/01/03 13:29:48;;;;;;;22.42;21.05;;;8.50;99.90;;;;;;4974880;28;20057;-71
2023/01/03 13:32:24;;;;;;;22.23;20.90;;;8.50;99.90;;;;;;4957753;28;20436;-71
2023/01/03 13:34:58;;;;;;;22.45;20.75;;;8.50;99.90;;;;;;4954976;28;20049;-71
2023/01/03 13:37:27;;;;;;;20.27;19.30;;;8.50;99.90;;;;;;4978814;28;20065;-71
2023/01/03 13:40:34;;;;;;;21.60;20.60;;;8.50;99.90;;;;;;4973276;28;20049;-72
2023/01/03 13:43:27;;;;;;;24.25;22.85;;;8.50;99.90;;;;;;4977777;28;20068;-71
2023/01/03 13:45:57;;;;;;;24.02;22.52;;;8.50;99.90;;;;;;4974884;28;20293;-71
2023/01/03 13:48:29;;;;;;;25.30;23.85;;;8.40;99.90;;;;;;4978828;28;20077;-71
2023/01/03 13:51:03;;;;;;;23.58;22.15;;;8.50;99.90;;;;;;4972229;28;20042;-71
2023/01/03 13:53:34;;;;;;;;;;;8.50;99.90;;;;;;4975826;28;20372;-71
2023/01/03 13:56:13;;;;;;;22.88;21.45;;;8.40;99.90;;;;;;4973578;28;20026;-71
2023/01/03 13:58:46;;;;;;;23.48;22.08;;;8.30;99.90;;;;;;4974063;28;20658;-73
2023/01/03 14:01:30;;;;;;;22.15;20.65;;;8.30;99.90;;;;;;4976453;28;20580;-74
2023/01/03 14:04:21;;;;;;;22.30;21.08;;;8.30;99.90;;;;;;4973713;28;20037;-71
2023/01/03 14:07:01;;;;;;;22.27;20.75;;;8.30;99.90;;;;;;5014282;28;20038;-71
2023/01/03 14:09:41;;;;;;;23.25;21.70;;;8.30;99.90;;;;;;4971384;28;20133;-73
2023/01/03 14:12:14;;;;;;;24.33;22.73;;;8.20;99.90;;;;;;4972630;28;20048;-74
2023/01/03 14:14:41;;;;;;;24.00;22.58;;;8.20;99.90;;;;;;4981556;28;20133;-74